Time;durP1;ratioP1;P1;durP2;ratioP2;P2;SDS_P1;SDS_P2;PMS_P1;PMS_P2;Temp;Humidity;BMP_temperature;BMP_pressure;BME280_temperature;BME280_humidity;BME280_pressure;Samples;Min_cycle;Max_cycle;Signal;HPM_P1;HPM_P2
2021/09/30 00:00:30;;;;;;;5.00;1.85;;;7.20;93.20;;;;;;4947723;28;20159;-60
2021/09/30 00:02:57;;;;;;;6.43;2.28;;;7.20;93.10;;;;;;4946978;28;20055;-61
2021/09/30 00:05:25;;;;;;;6.53;2.03;;;7.20;93.40;;;;;;4947361;28;20146;-61
2021/09/30 00:07:52;;;;;;;7.68;1.92;;;7.20;93.30;;;;;;4946284;28;20086;-61
2021/09/30 00:10:22;;;;;;;8.77;2.38;;;7.10;93.80;;;;;;4947594;28;20105;-61
2021/09/30 00:12:57;;;;;;;7.57;1.98;;;7.10;93.50;;;;;;4946506;28;20474;-61
2021/09/30 00:34:34;;;;;;;7.30;1.52;;;7.00;93.70;;;;;;4946587;29;20171;-61
2021/09/30 00:50:22;;;;;;;4.45;2.05;;;6.80;93.90;;;;;;4949648;29;20122;-61
2021/09/30 02:24:31;;;;;;;5.22;1.48;;;6.60;95.10;;;;;;4948255;28;20765;-61
2021/09/30 02:59:48;;;;;;;5.05;1.30;;;6.70;95.00;;;;;;4948295;28;20138;-61
2021/09/30 03:02:16;;;;;;;3.72;1.20;;;6.70;95.10;;;;;;4947880;29;20468;-60
2021/09/30 03:04:44;;;;;;;6.32;1.98;;;6.80;95.20;;;;;;4947796;29;20699;-61
2021/09/30 03:07:10;;;;;;;5.38;1.90;;;6.80;95.10;;;;;;4947678;28;20507;-60
2021/09/30 03:09:42;;;;;;;10.23;1.38;;;6.90;95.20;;;;;;4947572;29;20145;-61
2021/09/30 03:12:27;;;;;;;4.03;1.33;;;6.90;95.00;;;;;;4948123;29;20091;-61
2021/09/30 03:15:15;;;;;;;4.32;1.40;;;7.00;95.00;;;;;;4947086;29;20086;-60
2021/09/30 03:17:54;;;;;;;6.45;1.20;;;7.00;95.20;;;;;;4947510;29;20083;-61
2021/09/30 03:23:15;;;;;;;3.22;1.17;;;7.20;95.00;;;;;;4947550;29;20095;-61
2021/09/30 03:25:43;;;;;;;3.60;1.33;;;7.20;94.70;;;;;;4949156;28;20623;-61
2021/09/30 03:28:09;;;;;;;7.32;1.45;;;7.20;95.00;;;;;;4947504;28;20087;-60
2021/09/30 03:30:36;;;;;;;6.13;1.40;;;7.20;94.90;;;;;;4947559;29;20097;-61
2021/09/30 03:33:08;;;;;;;6.25;1.63;;;7.20;94.80;;;;;;4946496;29;20079;-61
2021/09/30 03:35:35;;;;;;;3.50;0.95;;;7.20;94.90;;;;;;4947628;28;20051;-61
2021/09/30 03:38:03;;;;;;;2.35;0.90;;;7.20;94.70;;;;;;4946812;29;20043;-61
2021/09/30 03:40:30;;;;;;;6.55;1.30;;;7.30;94.90;;;;;;4948967;28;20130;-61
2021/09/30 03:42:57;;;;;;;3.75;1.23;;;7.30;94.80;;;;;;4946115;29;20483;-61
2021/09/30 03:45:23;;;;;;;5.97;1.40;;;7.40;94.60;;;;;;4948271;28;20228;-61
2021/09/30 03:47:50;;;;;;;8.93;1.65;;;7.40;94.80;;;;;;4947313;28;20069;-60
2021/09/30 03:50:21;;;;;;;6.72;1.65;;;7.40;95.10;;;;;;4948256;28;20079;-61
2021/09/30 04:00:47;;;;;;;5.63;1.50;;;7.70;94.60;;;;;;4948445;29;20570;-61
2021/09/30 04:03:14;;;;;;;3.25;1.23;;;7.70;94.80;;;;;;4947625;28;20062;-61
2021/09/30 04:05:41;;;;;;;2.03;1.15;;;7.80;94.90;;;;;;4947936;28;20522;-61
2021/09/30 04:08:07;;;;;;;4.13;1.10;;;7.80;94.90;;;;;;4947881;28;20146;-61
2021/09/30 04:10:34;;;;;;;3.50;1.17;;;7.90;94.90;;;;;;4948315;28;20087;-61
2021/09/30 04:13:01;;;;;;;3.80;1.08;;;7.90;94.60;;;;;;4946924;28;20130;-61
2021/09/30 04:15:27;;;;;;;3.00;1.30;;;8.00;94.50;;;;;;4947954;28;20086;-61
2021/09/30 04:17:54;;;;;;;5.95;1.40;;;8.10;94.50;;;;;;4961724;28;20051;-61
2021/09/30 04:20:22;;;;;;;6.07;1.40;;;8.10;94.00;;;;;;4947649;28;20086;-61
2021/09/30 04:22:48;;;;;;;4.68;1.20;;;8.20;93.60;;;;;;4946546;29;20159;-61
2021/09/30 04:25:15;;;;;;;4.55;1.10;;;8.30;93.70;;;;;;4946455;28;20210;-61
2021/09/30 04:27:42;;;;;;;8.65;1.60;;;8.30;93.50;;;;;;4947559;28;20074;-61
2021/09/30 04:30:09;;;;;;;5.10;1.40;;;8.40;93.30;;;;;;4947290;28;20051;-61
2021/09/30 04:32:36;;;;;;;5.80;1.20;;;8.50;93.30;;;;;;4947880;29;20753;-61
2021/09/30 04:35:03;;;;;;;5.97;1.35;;;8.50;93.50;;;;;;4947826;29;20051;-61
2021/09/30 04:37:30;;;;;;;5.70;1.55;;;8.60;93.00;;;;;;4945771;29;20130;-61
2021/09/30 04:39:57;;;;;;;4.60;1.75;;;8.60;92.90;;;;;;4947037;29;20090;-61
2021/09/30 04:42:24;;;;;;;8.20;1.73;;;8.70;92.60;;;;;;4947639;29;20123;-61
2021/09/30 04:44:50;;;;;;;3.58;1.50;;;8.80;92.60;;;;;;4945288;29;20169;-60
2021/09/30 04:47:17;;;;;;;7.28;1.48;;;8.90;92.20;;;;;;4946385;28;20235;-61
2021/09/30 04:49:44;;;;;;;9.32;1.75;;;9.00;92.00;;;;;;4941087;28;20640;-61
2021/09/30 04:52:11;;;;;;;7.72;1.88;;;9.00;91.70;;;;;;4943916;28;20055;-61
2021/09/30 04:54:38;;;;;;;5.05;1.38;;;9.20;91.80;;;;;;4943897;28;20145;-61
2021/09/30 04:57:05;;;;;;;9.80;2.40;;;9.20;91.60;;;;;;4924229;29;20547;-61
2021/09/30 04:59:32;;;;;;;6.15;1.33;;;9.30;91.50;;;;;;4932443;29;20114;-61
2021/09/30 05:02:00;;;;;;;10.98;2.90;;;9.40;91.30;;;;;;4939610;28;20059;-61
2021/09/30 05:04:27;;;;;;;6.82;1.63;;;9.40;91.20;;;;;;4941076;28;20146;-61
2021/09/30 05:06:55;;;;;;;5.82;1.40;;;9.50;91.20;;;;;;4940612;28;20047;-61
2021/09/30 05:09:24;;;;;;;6.90;1.48;;;9.50;90.90;;;;;;4940631;28;20067;-61
2021/09/30 05:11:53;;;;;;;5.43;1.55;;;9.60;90.80;;;;;;4940914;28;20079;-61
2021/09/30 05:14:20;;;;;;;5.90;1.30;;;9.70;90.70;;;;;;4938103;29;20094;-61
2021/09/30 05:16:47;;;;;;;5.80;1.35;;;9.80;90.50;;;;;;4939715;28;20134;-61
2021/09/30 05:19:15;;;;;;;5.05;1.65;;;9.80;90.60;;;;;;4940458;28;20055;-61
2021/09/30 05:21:42;;;;;;;6.28;1.33;;;9.90;90.40;;;;;;4938267;28;20079;-61
2021/09/30 05:24:09;;;;;;;6.20;1.23;;;9.90;90.20;;;;;;4938957;28;20206;-61
2021/09/30 05:26:35;;;;;;;7.90;1.67;;;10.00;90.00;;;;;;4939097;28;20093;-61
2021/09/30 05:29:03;;;;;;;4.63;2.00;;;10.10;90.00;;;;;;4936550;28;20145;-61
2021/09/30 05:31:30;;;;;;;5.03;2.10;;;10.20;90.40;;;;;;4931188;29;20186;-60
2021/09/30 05:33:56;;;;;;;7.47;1.85;;;10.10;90.20;;;;;;4936389;28;20060;-60
2021/09/30 05:36:24;;;;;;;8.25;3.67;;;10.20;90.00;;;;;;4936983;28;20050;-60
2021/09/30 05:38:51;;;;;;;5.20;2.10;;;10.20;90.30;;;;;;4931353;29;20055;-60
2021/09/30 05:41:18;;;;;;;4.65;2.22;;;10.20;90.00;;;;;;4931229;29;20593;-60
2021/09/30 05:43:54;;;;;;;8.63;2.90;;;10.20;90.10;;;;;;4933649;29;20094;-60
2021/09/30 05:46:34;;;;;;;7.47;1.70;;;10.30;89.20;;;;;;4936705;29;20150;-60
2021/09/30 05:49:01;;;;;;;5.53;1.50;;;10.30;90.10;;;;;;4931239;29;20130;-60
2021/09/30 05:51:29;;;;;;;7.80;2.03;;;10.40;90.10;;;;;;4933679;28;20052;-60
2021/09/30 05:54:00;;;;;;;5.72;1.45;;;10.40;88.90;;;;;;4934965;29;20097;-61
2021/09/30 05:56:28;;;;;;;7.15;1.67;;;10.40;88.60;;;;;;4942686;28;20090;-61
2021/09/30 05:58:55;;;;;;;6.75;1.73;;;10.50;88.10;;;;;;4941747;28;20074;-61
2021/09/30 06:01:43;;;;;;;10.52;2.03;;;10.50;88.40;;;;;;4943296;28;20143;-61
2021/09/30 06:14:33;;;;;;;4.45;1.40;;;10.80;87.30;;;;;;4922491;29;20855;-60
2021/09/30 06:17:01;;;;;;;6.88;1.98;;;10.90;87.70;;;;;;4932070;28;20055;-60
2021/09/30 06:19:30;;;;;;;4.78;1.45;;;10.90;87.70;;;;;;4935689;29;20059;-61
2021/09/30 06:21:57;;;;;;;6.43;1.33;;;11.00;88.10;;;;;;4943498;28;20826;-61
2021/09/30 06:24:24;;;;;;;9.27;1.70;;;11.00;87.70;;;;;;4942912;28;20597;-61
2021/09/30 06:26:50;;;;;;;3.08;1.40;;;11.00;87.90;;;;;;4942867;28;20157;-61
2021/09/30 06:29:17;;;;;;;7.18;1.33;;;11.10;88.40;;;;;;4940830;29;20083;-61
2021/09/30 06:31:44;;;;;;;6.38;1.50;;;11.10;87.20;;;;;;4942941;28;20146;-60
2021/09/30 06:34:11;;;;;;;6.47;2.72;;;11.20;87.80;;;;;;4943232;28;20162;-61
2021/09/30 06:36:37;;;;;;;6.85;2.08;;;11.30;87.80;;;;;;4941710;29;20078;-60
2021/09/30 06:39:04;;;;;;;6.82;1.40;;;11.30;87.30;;;;;;4941716;28;20138;-60
2021/09/30 06:41:31;;;;;;;5.63;1.35;;;11.40;87.60;;;;;;4942212;28;20165;-60
2021/09/30 06:44:16;;;;;;;6.70;1.60;;;11.50;87.60;;;;;;4941745;28;20059;-60
2021/09/30 06:46:42;;;;;;;3.90;1.55;;;11.50;86.50;;;;;;4941824;28;20138;-60
2021/09/30 06:49:09;;;;;;;5.43;1.48;;;11.60;86.80;;;;;;4942343;28;20065;-60
2021/09/30 06:51:36;;;;;;;9.02;3.53;;;11.70;87.10;;;;;;4943065;28;20127;-60
2021/09/30 06:54:03;;;;;;;6.60;1.50;;;11.70;86.80;;;;;;4942237;28;20054;-61
2021/09/30 06:56:31;;;;;;;10.10;1.55;;;11.80;87.00;;;;;;4942643;28;20082;-61
2021/09/30 06:59:07;;;;;;;7.45;1.42;;;11.80;86.50;;;;;;4941927;28;20078;-61
2021/09/30 07:01:35;;;;;;;6.22;2.30;;;11.80;86.60;;;;;;4942226;28;20153;-61
2021/09/30 07:04:08;;;;;;;6.57;1.52;;;11.80;86.50;;;;;;4942519;28;20542;-61
2021/09/30 07:06:35;;;;;;;7.78;1.60;;;11.90;86.20;;;;;;4940988;29;20086;-61
2021/09/30 07:09:02;;;;;;;6.05;1.50;;;11.90;86.30;;;;;;4941828;28;20059;-60
2021/09/30 07:11:29;;;;;;;6.95;1.70;;;11.90;86.30;;;;;;4942379;28;20870;-61
2021/09/30 07:13:56;;;;;;;3.67;2.25;;;12.00;86.10;;;;;;4940915;28;20130;-60
2021/09/30 07:16:23;;;;;;;5.90;1.70;;;12.00;86.30;;;;;;4940424;28;20125;-60
2021/09/30 07:18:50;;;;;;;4.90;1.63;;;12.10;85.80;;;;;;4939766;28;20595;-61
2021/09/30 07:21:17;;;;;;;4.45;1.35;;;12.20;85.70;;;;;;4928507;29;20083;-61
2021/09/30 07:23:44;;;;;;;7.40;1.90;;;12.20;85.70;;;;;;4940645;29;20115;-61
2021/09/30 07:26:12;;;;;;;8.10;2.78;;;12.30;85.70;;;;;;4937886;29;20054;-61
2021/09/30 07:28:38;;;;;;;8.25;4.07;;;12.30;85.50;;;;;;4940125;28;20091;-61
2021/09/30 07:31:06;;;;;;;8.88;2.33;;;12.30;85.40;;;;;;4934533;29;20428;-60
2021/09/30 07:33:33;;;;;;;5.90;1.50;;;12.40;84.60;;;;;;4937599;28;20154;-60
2021/09/30 07:36:00;;;;;;;4.82;1.85;;;12.40;84.90;;;;;;4936710;29;20051;-60
2021/09/30 07:38:28;;;;;;;6.93;1.70;;;12.50;85.20;;;;;;4938301;28;20134;-61
2021/09/30 07:40:55;;;;;;;6.18;1.80;;;12.50;83.70;;;;;;4939837;28;20113;-61
2021/09/30 07:43:22;;;;;;;6.28;1.60;;;12.60;83.90;;;;;;4935019;28;20138;-61
2021/09/30 07:45:50;;;;;;;3.95;1.30;;;12.60;84.60;;;;;;4937071;28;20078;-61
2021/09/30 07:48:17;;;;;;;8.43;1.50;;;12.70;84.50;;;;;;4940187;28;20526;-61
2021/09/30 07:50:45;;;;;;;9.40;1.95;;;12.80;84.50;;;;;;4937765;28;20158;-61
2021/09/30 07:53:14;;;;;;;6.57;2.47;;;12.80;84.90;;;;;;4925911;29;20087;-61
2021/09/30 07:55:42;;;;;;;6.32;1.70;;;12.90;85.50;;;;;;4934628;29;20086;-61
2021/09/30 07:58:09;;;;;;;6.32;1.60;;;12.90;86.50;;;;;;4934736;29;20051;-59
2021/09/30 08:00:37;;;;;;;7.57;1.90;;;12.90;86.10;;;;;;4938093;28;20051;-61
2021/09/30 08:03:05;;;;;;;5.80;1.58;;;12.80;86.00;;;;;;4925606;29;20522;-61
2021/09/30 08:05:35;;;;;;;5.35;1.58;;;12.80;87.20;;;;;;4935178;29;20462;-61
2021/09/30 08:08:09;;;;;;;12.20;2.05;;;12.70;88.20;;;;;;4929243;28;20048;-60
2021/09/30 08:10:36;;;;;;;6.45;1.50;;;12.70;87.40;;;;;;4923577;29;20134;-60
2021/09/30 08:13:03;;;;;;;10.25;2.15;;;12.70;89.10;;;;;;4923681;29;20130;-61
2021/09/30 08:15:30;;;;;;;10.00;1.42;;;12.70;89.70;;;;;;4930681;29;20086;-61
2021/09/30 08:17:57;;;;;;;5.82;1.85;;;12.80;89.10;;;;;;4930518;29;20130;-60
2021/09/30 08:20:24;;;;;;;4.35;1.65;;;12.80;89.20;;;;;;4924728;29;20096;-61
2021/09/30 08:22:53;;;;;;;5.03;1.88;;;12.80;88.00;;;;;;4932351;29;20162;-61
2021/09/30 08:25:19;;;;;;;7.25;1.85;;;12.80;88.70;;;;;;4940346;28;20074;-60
2021/09/30 08:27:46;;;;;;;5.95;1.80;;;12.90;88.90;;;;;;4938794;28;20051;-60
2021/09/30 08:30:13;;;;;;;6.40;1.65;;;12.90;88.70;;;;;;4937584;28;20106;-60
2021/09/30 08:32:40;;;;;;;7.20;2.03;;;13.00;87.20;;;;;;4933872;28;20135;-60
2021/09/30 08:35:07;;;;;;;13.23;1.90;;;13.00;88.00;;;;;;4929961;28;20575;-61
2021/09/30 08:37:34;;;;;;;4.55;1.60;;;13.10;87.60;;;;;;4935222;29;20086;-60
2021/09/30 08:40:00;;;;;;;4.63;2.00;;;13.10;87.20;;;;;;4940479;28;20094;-61
2021/09/30 08:42:27;;;;;;;10.32;2.00;;;13.10;87.20;;;;;;4934273;28;20057;-60
2021/09/30 08:44:57;;;;;;;9.10;2.00;;;13.30;87.80;;;;;;4929069;29;20055;-61
2021/09/30 08:47:23;;;;;;;9.38;1.83;;;13.30;87.50;;;;;;4935441;29;20119;-60
2021/09/30 08:49:50;;;;;;;6.38;1.83;;;13.40;86.00;;;;;;4928992;28;20107;-61
2021/09/30 08:52:17;;;;;;;9.60;1.80;;;13.50;86.40;;;;;;4934763;29;20093;-61
2021/09/30 08:54:46;;;;;;;7.57;1.80;;;13.50;85.50;;;;;;4940761;28;20466;-61
2021/09/30 08:57:13;;;;;;;9.25;3.45;;;13.50;85.50;;;;;;4931230;28;20166;-61
2021/09/30 08:59:40;;;;;;;8.38;2.00;;;13.60;83.90;;;;;;4932317;28;20078;-60
2021/09/30 09:02:11;;;;;;;9.82;2.03;;;13.70;85.20;;;;;;4928747;28;20051;-61
2021/09/30 09:04:55;;;;;;;6.93;2.33;;;13.70;83.80;;;;;;4926878;29;20047;-61
2021/09/30 09:07:24;;;;;;;5.72;1.73;;;13.80;83.70;;;;;;4940977;29;20161;-60
2021/09/30 09:09:51;;;;;;;6.28;1.80;;;13.80;83.90;;;;;;4937542;29;20681;-61
2021/09/30 09:12:18;;;;;;;4.35;1.80;;;13.90;84.70;;;;;;4936103;29;20078;-61
2021/09/30 09:14:45;;;;;;;9.73;3.45;;;14.00;84.60;;;;;;4932889;28;20075;-61
2021/09/30 09:17:13;;;;;;;6.85;2.13;;;14.00;84.90;;;;;;4944260;28;20146;-60
2021/09/30 09:19:41;;;;;;;10.25;3.03;;;14.10;85.00;;;;;;4944756;28;20051;-60
2021/09/30 09:22:15;;;;;;;6.30;1.98;;;14.10;84.20;;;;;;4943186;28;20499;-61
2021/09/30 09:25:03;;;;;;;5.15;1.75;;;14.10;84.70;;;;;;4940819;29;20050;-61
2021/09/30 09:27:55;;;;;;;8.73;2.10;;;14.10;85.90;;;;;;4938520;29;20082;-60
2021/09/30 09:30:42;;;;;;;4.57;1.38;;;14.20;87.40;;;;;;4941525;28;20162;-60
2021/09/30 09:33:22;;;;;;;5.18;1.98;;;14.20;85.80;;;;;;4929201;29;20147;-61
2021/09/30 09:36:12;;;;;;;5.78;1.55;;;14.20;85.00;;;;;;4943351;29;20101;-61
2021/09/30 09:38:42;;;;;;;8.32;2.35;;;14.30;87.60;;;;;;4944420;28;20145;-61
2021/09/30 09:41:26;;;;;;;7.32;1.63;;;14.50;86.30;;;;;;4944958;28;20089;-60
2021/09/30 09:43:53;;;;;;;;;;;14.60;85.80;;;;;;4944452;28;20462;-60
2021/09/30 09:46:23;;;;;;;6.22;2.00;;;14.70;84.30;;;;;;4944420;29;20505;-60
2021/09/30 09:48:54;;;;;;;7.80;2.17;;;14.90;85.20;;;;;;4943186;29;20102;-62
2021/09/30 09:51:21;;;;;;;9.32;2.88;;;15.10;86.30;;;;;;4943724;29;20055;-61
2021/09/30 09:53:48;;;;;;;13.40;3.35;;;15.20;84.70;;;;;;4944224;28;20151;-61
2021/09/30 09:56:19;;;;;;;9.02;3.42;;;15.40;84.70;;;;;;4944782;28;20094;-61
2021/09/30 09:58:49;;;;;;;8.57;2.45;;;15.50;84.70;;;;;;4943266;28;20055;-60
2021/09/30 10:01:20;;;;;;;9.48;2.20;;;15.70;84.30;;;;;;4930235;29;20159;-61
2021/09/30 10:03:57;;;;;;;6.07;2.00;;;15.70;84.30;;;;;;4933282;28;20155;-61
2021/09/30 10:06:28;;;;;;;6.25;2.10;;;15.80;83.80;;;;;;4943139;29;20083;-62
2021/09/30 10:08:55;;;;;;;7.13;2.65;;;15.90;83.40;;;;;;4942588;28;20099;-61
2021/09/30 10:11:22;;;;;;;14.15;2.50;;;16.10;83.50;;;;;;4925611;29;20127;-61
2021/09/30 10:13:49;;;;;;;6.53;1.92;;;16.20;83.60;;;;;;4931450;29;20154;-61
2021/09/30 10:16:24;;;;;;;8.45;1.85;;;16.40;82.80;;;;;;4941384;28;20083;-61
2021/09/30 10:19:02;;;;;;;12.15;2.10;;;16.60;82.20;;;;;;4933886;28;20047;-61
2021/09/30 10:21:30;;;;;;;11.05;2.25;;;16.70;80.20;;;;;;4934995;29;20089;-61
2021/09/30 10:24:17;;;;;;;12.95;2.83;;;16.70;80.80;;;;;;4933506;28;20063;-61
2021/09/30 10:26:50;;;;;;;9.18;2.53;;;16.70;80.70;;;;;;4931526;29;20122;-61
2021/09/30 10:29:36;;;;;;;10.00;2.22;;;16.70;79.40;;;;;;4939185;29;20066;-61
2021/09/30 10:32:05;;;;;;;7.55;2.28;;;16.60;78.40;;;;;;4926575;28;20107;-61
2021/09/30 10:34:34;;;;;;;6.47;2.25;;;16.60;79.40;;;;;;4934502;29;20113;-61
2021/09/30 10:37:20;;;;;;;6.88;2.10;;;16.60;80.40;;;;;;4935517;28;20090;-61
2021/09/30 10:40:16;;;;;;;11.57;2.22;;;16.70;79.40;;;;;;4936640;29;20162;-61
2021/09/30 10:42:56;;;;;;;8.63;2.33;;;16.90;78.70;;;;;;4924372;29;20082;-60
2021/09/30 10:45:37;;;;;;;7.55;2.58;;;16.90;78.40;;;;;;4931606;29;20384;-61
2021/09/30 10:48:06;;;;;;;10.77;2.38;;;16.90;78.30;;;;;;4933964;29;20174;-61
2021/09/30 10:50:51;;;;;;;10.70;2.97;;;17.10;78.20;;;;;;4935449;29;20054;-61
2021/09/30 10:53:18;;;;;;;8.32;2.97;;;17.10;77.80;;;;;;4937392;28;20107;-61
2021/09/30 10:55:45;;;;;;;9.13;2.33;;;17.10;77.30;;;;;;4934219;28;20507;-61
2021/09/30 10:58:22;;;;;;;10.27;2.83;;;17.10;77.80;;;;;;4937227;29;20130;-61
2021/09/30 11:00:52;;;;;;;10.18;2.20;;;16.90;76.40;;;;;;4927854;28;20135;-61
2021/09/30 11:03:23;;;;;;;8.85;2.65;;;16.70;78.20;;;;;;4926297;29;20047;-61
2021/09/30 11:06:09;;;;;;;6.15;2.28;;;16.50;79.50;;;;;;4933922;29;20082;-61
2021/09/30 11:08:35;;;;;;;9.27;2.15;;;16.50;79.80;;;;;;4939025;29;20122;-61
2021/09/30 11:11:04;;;;;;;11.48;3.20;;;16.60;80.00;;;;;;4922759;29;20051;-61
2021/09/30 11:13:31;;;;;;;9.75;2.97;;;16.70;80.20;;;;;;4931609;29;20149;-61
2021/09/30 11:16:18;;;;;;;8.35;2.75;;;16.90;80.00;;;;;;4925077;29;20499;-61
2021/09/30 11:18:52;;;;;;;6.40;1.95;;;16.90;79.00;;;;;;4941007;29;20658;-61
2021/09/30 11:21:31;;;;;;;9.40;2.47;;;16.90;78.40;;;;;;4943313;28;20095;-62
2021/09/30 11:24:20;;;;;;;8.02;1.90;;;16.80;79.30;;;;;;4940463;28;20077;-61
2021/09/30 11:26:53;;;;;;;10.85;2.20;;;16.70;79.30;;;;;;4933010;29;20082;-62
2021/09/30 11:29:20;;;;;;;10.70;2.55;;;16.70;78.60;;;;;;4939551;28;20138;-61
2021/09/30 11:31:53;;;;;;;9.85;1.85;;;16.60;79.40;;;;;;4942726;28;20747;-61
2021/09/30 11:34:35;;;;;;;12.57;3.03;;;16.60;80.00;;;;;;4939070;28;20712;-61
2021/09/30 11:37:14;;;;;;;8.70;2.85;;;16.60;79.00;;;;;;4940389;29;20044;-61
2021/09/30 11:39:40;;;;;;;8.98;2.97;;;16.60;78.70;;;;;;4936066;28;20090;-61
2021/09/30 11:42:07;;;;;;;11.95;2.50;;;16.70;79.60;;;;;;4930971;29;20538;-61
2021/09/30 11:44:34;;;;;;;8.38;2.40;;;16.70;79.60;;;;;;4930168;29;20061;-61
2021/09/30 11:47:01;;;;;;;10.00;2.38;;;16.90;79.90;;;;;;4930822;28;20051;-61
2021/09/30 11:49:29;;;;;;;9.32;1.98;;;16.90;78.10;;;;;;4933968;29;20133;-61
2021/09/30 11:51:57;;;;;;;10.02;2.35;;;17.00;78.50;;;;;;4933694;29;20094;-61
2021/09/30 11:54:25;;;;;;;13.82;2.55;;;17.00;78.70;;;;;;4930953;29;20138;-61
2021/09/30 11:56:56;;;;;;;11.18;2.63;;;16.90;77.50;;;;;;4940773;29;20661;-61
2021/09/30 11:59:24;;;;;;;11.73;3.42;;;16.90;77.80;;;;;;4938473;28;20433;-61
2021/09/30 12:01:52;;;;;;;9.98;2.78;;;17.00;78.40;;;;;;4927701;28;20086;-61
2021/09/30 12:04:53;;;;;;;14.38;3.13;;;16.90;78.40;;;;;;4933800;29;20674;-61
2021/09/30 12:07:26;;;;;;;14.85;3.17;;;16.90;78.60;;;;;;4938325;28;20432;-61
2021/09/30 12:09:55;;;;;;;6.25;1.60;;;17.00;78.60;;;;;;4926374;29;20464;-61
2021/09/30 12:12:34;;;;;;;10.02;3.55;;;17.10;76.40;;;;;;4929159;29;20090;-61
2021/09/30 12:15:01;;;;;;;14.65;2.88;;;17.20;76.20;;;;;;4921102;29;20134;-61
2021/09/30 12:17:32;;;;;;;10.45;2.50;;;17.20;76.10;;;;;;4932385;29;20196;-61
2021/09/30 12:19:59;;;;;;;10.50;2.65;;;17.20;75.50;;;;;;4936184;28;20055;-61
2021/09/30 12:22:43;;;;;;;8.73;2.20;;;17.20;76.80;;;;;;4940383;28;20114;-61
2021/09/30 12:25:23;;;;;;;10.38;2.60;;;17.20;75.80;;;;;;4925241;28;20102;-61
2021/09/30 12:27:51;;;;;;;11.95;2.95;;;17.20;75.70;;;;;;4926258;29;20091;-61
2021/09/30 12:30:25;;;;;;;10.63;2.92;;;17.10;76.60;;;;;;4933545;29;20051;-61
2021/09/30 12:32:54;;;;;;;9.43;1.98;;;17.20;76.20;;;;;;4932129;29;20126;-60
2021/09/30 12:35:28;;;;;;;9.27;2.80;;;17.30;75.30;;;;;;4929732;29;20091;-60
2021/09/30 12:38:09;;;;;;;9.20;3.50;;;17.40;75.30;;;;;;4930746;29;20091;-61
2021/09/30 12:40:38;;;;;;;11.32;2.20;;;17.60;74.30;;;;;;4936147;28;20151;-60
2021/09/30 12:43:07;;;;;;;9.68;2.00;;;17.70;74.30;;;;;;4924274;29;20056;-61
2021/09/30 12:45:36;;;;;;;6.18;2.30;;;17.80;73.90;;;;;;4954813;28;20075;-61
2021/09/30 12:48:08;;;;;;;6.55;2.00;;;17.70;72.80;;;;;;4943142;28;20564;-61
2021/09/30 12:50:58;;;;;;;11.82;2.90;;;17.70;73.90;;;;;;4938917;28;20149;-60
2021/09/30 12:53:25;;;;;;;7.22;2.22;;;17.70;73.60;;;;;;4939374;29;20051;-61
2021/09/30 12:55:58;;;;;;;8.90;2.50;;;17.70;73.80;;;;;;4927301;28;20641;-61
2021/09/30 12:58:31;;;;;;;;;;;17.50;73.70;;;;;;4932725;29;20130;-61
2021/09/30 13:01:00;;;;;;;6.57;2.13;;;17.40;73.60;;;;;;4945141;29;19949;-61
2021/09/30 13:03:27;;;;;;;8.95;2.20;;;17.20;75.30;;;;;;4930766;28;20090;-61
2021/09/30 13:05:55;;;;;;;14.57;2.42;;;17.00;76.00;;;;;;4928041;29;20131;-61
2021/09/30 13:08:40;;;;;;;10.88;2.58;;;17.00;76.40;;;;;;4940765;28;20138;-61
2021/09/30 13:11:31;;;;;;;17.20;2.63;;;17.00;77.00;;;;;;4930743;29;20058;-61
2021/09/30 13:14:20;;;;;;;7.93;2.92;;;17.00;76.80;;;;;;4936683;29;20130;-60
2021/09/30 13:16:55;;;;;;;8.27;2.35;;;17.10;77.50;;;;;;4944394;28;20130;-61
2021/09/30 13:19:40;;;;;;;6.68;1.92;;;17.10;77.30;;;;;;4947464;28;20109;-61
2021/09/30 13:22:10;;;;;;;10.38;2.20;;;17.10;77.80;;;;;;4945317;28;20040;-61
2021/09/30 13:24:37;;;;;;;10.73;2.70;;;17.20;77.80;;;;;;4934528;29;20083;-61
2021/09/30 13:27:05;;;;;;;9.15;2.60;;;17.40;78.00;;;;;;4941679;28;20138;-61
2021/09/30 13:29:44;;;;;;;6.50;3.03;;;17.70;77.60;;;;;;4942703;29;20095;-61
2021/09/30 13:32:12;;;;;;;12.18;2.50;;;17.90;76.90;;;;;;4941675;28;20055;-61
2021/09/30 13:34:39;;;;;;;9.63;2.97;;;18.00;76.10;;;;;;4941587;29;20071;-61
2021/09/30 13:37:05;;;;;;;8.02;2.53;;;18.10;75.90;;;;;;4937136;29;20146;-61
2021/09/30 13:39:32;;;;;;;9.07;2.83;;;18.10;76.30;;;;;;4944981;28;20110;-62
2021/09/30 13:41:59;;;;;;;9.90;2.38;;;18.10;75.80;;;;;;4945067;28;20054;-61
2021/09/30 13:44:26;;;;;;;7.45;2.63;;;18.00;76.20;;;;;;4942710;29;20534;-61
2021/09/30 13:46:52;;;;;;;15.23;3.28;;;18.00;77.20;;;;;;4944067;28;20278;-61
2021/09/30 13:49:19;;;;;;;12.40;2.65;;;18.00;77.10;;;;;;4944258;28;20253;-61
2021/09/30 13:51:46;;;;;;;12.18;2.28;;;17.90;77.20;;;;;;4943258;28;20135;-61
2021/09/30 13:54:13;;;;;;;10.57;2.42;;;17.80;77.50;;;;;;4938243;29;20158;-61
2021/09/30 13:56:40;;;;;;;14.13;3.22;;;17.60;78.20;;;;;;4929365;28;20055;-61
2021/09/30 13:59:06;;;;;;;11.18;2.70;;;17.60;78.60;;;;;;4931606;28;20568;-61
2021/09/30 14:01:53;;;;;;;14.15;2.55;;;17.50;78.90;;;;;;4933948;29;20051;-61
2021/09/30 14:04:20;;;;;;;13.63;2.78;;;17.70;78.30;;;;;;4944672;29;20591;-61
2021/09/30 14:06:48;;;;;;;8.90;2.85;;;17.70;78.90;;;;;;4943680;28;20436;-61
2021/09/30 14:09:16;;;;;;;10.75;2.60;;;17.70;78.90;;;;;;4933328;28;20143;-61
2021/09/30 14:11:43;;;;;;;6.70;2.25;;;17.90;78.70;;;;;;4930482;28;20091;-61
2021/09/30 14:14:10;;;;;;;13.27;2.63;;;18.10;78.30;;;;;;4934837;29;20081;-61
2021/09/30 14:16:36;;;;;;;8.98;2.97;;;18.10;77.40;;;;;;4943778;28;20622;-61
2021/09/30 14:19:03;;;;;;;11.93;2.35;;;18.10;77.70;;;;;;4935388;28;20156;-61
2021/09/30 14:21:30;;;;;;;11.27;3.08;;;18.30;76.80;;;;;;4928140;28;20091;-61
2021/09/30 14:23:57;;;;;;;8.25;2.47;;;18.90;75.40;;;;;;4928925;29;20142;-61
2021/09/30 14:26:24;;;;;;;9.98;2.65;;;19.10;74.80;;;;;;4930207;29;20138;-61
2021/09/30 14:28:50;;;;;;;17.17;3.08;;;19.30;74.50;;;;;;4927767;29;20231;-61
2021/09/30 14:31:17;;;;;;;17.13;3.40;;;19.10;74.50;;;;;;4941658;28;20142;-61
2021/09/30 14:33:44;;;;;;;9.32;2.40;;;18.70;74.70;;;;;;4936013;28;20058;-61
2021/09/30 14:36:12;;;;;;;10.73;3.08;;;18.40;75.80;;;;;;4938174;29;20051;-61
2021/09/30 14:38:38;;;;;;;11.90;2.70;;;18.10;76.60;;;;;;4942399;28;20056;-62
2021/09/30 14:41:06;;;;;;;13.10;3.00;;;17.90;77.80;;;;;;4934218;28;20430;-61
2021/09/30 14:43:36;;;;;;;13.02;2.80;;;17.70;78.40;;;;;;4938111;29;20138;-61
2021/09/30 14:46:04;;;;;;;17.73;3.28;;;17.60;79.80;;;;;;4941810;28;20122;-61
2021/09/30 14:48:32;;;;;;;7.72;1.92;;;17.60;79.60;;;;;;4956160;28;20154;-61
2021/09/30 14:51:01;;;;;;;11.25;2.70;;;17.50;79.50;;;;;;4943562;28;20066;-61
2021/09/30 14:53:28;;;;;;;11.63;3.13;;;17.40;79.40;;;;;;4942777;28;20090;-61
2021/09/30 14:55:55;;;;;;;12.15;2.33;;;17.50;79.70;;;;;;4943836;28;20695;-61
2021/09/30 14:58:22;;;;;;;12.70;3.30;;;17.40;79.70;;;;;;4940723;29;20146;-60
2021/09/30 15:00:49;;;;;;;13.45;3.65;;;17.40;80.00;;;;;;4943942;28;20090;-60
2021/09/30 15:03:16;;;;;;;8.27;2.40;;;17.30;80.30;;;;;;4941866;28;20052;-61
2021/09/30 15:05:43;;;;;;;11.48;2.55;;;17.30;80.50;;;;;;4944013;28;20166;-61
2021/09/30 15:08:11;;;;;;;11.55;3.03;;;17.20;80.90;;;;;;4941389;29;20059;-61
2021/09/30 15:10:38;;;;;;;13.65;3.38;;;17.10;81.40;;;;;;4943411;28;20051;-60
2021/09/30 15:13:05;;;;;;;8.48;3.05;;;17.00;81.60;;;;;;4942259;28;20415;-60
2021/09/30 15:15:33;;;;;;;10.70;2.60;;;17.00;82.30;;;;;;4943771;28;20562;-61
2021/09/30 15:18:11;;;;;;;8.90;2.80;;;16.90;83.00;;;;;;4941110;29;20078;-60
2021/09/30 15:23:15;;;;;;;9.02;2.38;;;16.80;83.70;;;;;;4933447;28;20517;-61
2021/09/30 15:25:46;;;;;;;8.77;2.53;;;16.80;84.20;;;;;;4929175;29;20051;-61
2021/09/30 15:28:15;;;;;;;12.45;3.03;;;16.80;84.10;;;;;;4934794;29;20166;-62
2021/09/30 15:30:42;;;;;;;16.15;2.97;;;16.80;84.70;;;;;;4936185;29;20090;-61
2021/09/30 15:33:10;;;;;;;11.80;3.63;;;16.80;84.80;;;;;;4929127;29;20142;-61
2021/09/30 15:35:38;;;;;;;9.02;2.88;;;16.80;85.30;;;;;;4943217;29;20105;-61
2021/09/30 15:38:05;;;;;;;13.63;2.53;;;16.70;85.70;;;;;;4944176;28;20138;-61
2021/09/30 15:40:31;;;;;;;12.20;3.92;;;16.60;86.50;;;;;;4944899;28;20546;-61
2021/09/30 15:42:58;;;;;;;12.02;3.38;;;16.50;87.30;;;;;;4926555;29;20078;-61
2021/09/30 15:45:25;;;;;;;8.98;2.10;;;16.40;88.00;;;;;;4944751;28;20094;-61
2021/09/30 15:47:52;;;;;;;10.55;2.90;;;16.30;88.40;;;;;;4942532;29;20179;-61
2021/09/30 15:50:19;;;;;;;13.52;3.38;;;16.30;88.40;;;;;;4944293;28;20126;-61
2021/09/30 15:52:47;;;;;;;11.27;2.78;;;16.20;88.90;;;;;;4943825;28;20464;-61
2021/09/30 15:55:13;;;;;;;8.43;2.30;;;16.20;90.00;;;;;;4944647;28;20183;-61
2021/09/30 15:57:40;;;;;;;11.05;2.72;;;16.20;90.00;;;;;;4944038;28;20562;-61
2021/09/30 16:00:08;;;;;;;13.95;2.78;;;16.10;89.90;;;;;;4944366;28;20125;-61